Time;durP1;ratioP1;P1;durP2;ratioP2;P2;SDS_P1;SDS_P2;PMS_P1;PMS_P2;Temp;Humidity;BMP_temperature;BMP_pressure;BME280_temperature;BME280_humidity;BME280_pressure;Samples;Min_cycle;Max_cycle;Signal;HPM_P1;HPM_P2
2022/10/12 00:00:18;;;;;;;7.55;2.85;;;4.70;99.90;;;;;;5044571;28;20049;-39
2022/10/12 00:02:44;;;;;;;11.57;3.00;;;4.60;99.90;;;;;;5044461;28;20414;-39
2022/10/12 00:05:10;;;;;;;6.00;2.38;;;4.60;99.90;;;;;;5044930;28;20431;-39
2022/10/12 00:07:36;;;;;;;6.50;1.92;;;4.70;99.90;;;;;;5044405;28;20568;-40
2022/10/12 00:10:02;;;;;;;5.25;2.20;;;4.70;99.90;;;;;;5044212;28;20045;-39
2022/10/12 00:12:28;;;;;;;6.68;2.88;;;4.70;99.90;;;;;;5045432;28;20079;-39
2022/10/12 00:14:54;;;;;;;9.45;2.72;;;4.80;99.90;;;;;;5048212;28;20076;-39
2022/10/12 00:17:19;;;;;;;6.65;2.28;;;4.70;99.90;;;;;;5049086;28;20048;-40
2022/10/12 00:19:45;;;;;;;7.90;3.22;;;4.90;99.90;;;;;;5048126;28;20044;-39
2022/10/12 00:22:10;;;;;;;13.60;3.55;;;4.90;99.90;;;;;;5048791;28;20070;-39
2022/10/12 00:24:36;;;;;;;4.32;2.50;;;4.90;99.90;;;;;;5048815;28;20600;-39
2022/10/12 00:27:02;;;;;;;5.97;1.95;;;5.10;99.90;;;;;;5048710;28;20418;-39
2022/10/12 00:29:27;;;;;;;8.40;2.58;;;5.00;99.90;;;;;;5048674;28;20387;-39
2022/10/12 00:31:53;;;;;;;8.27;1.98;;;5.20;99.90;;;;;;5048160;28;20080;-39
2022/10/12 00:34:19;;;;;;;7.13;2.65;;;5.10;99.90;;;;;;5048530;28;20041;-40
2022/10/12 00:36:44;;;;;;;7.57;3.22;;;5.10;99.90;;;;;;5047941;28;20466;-40
2022/10/12 00:39:10;;;;;;;8.48;3.33;;;5.60;99.90;;;;;;5048246;28;20041;-40
2022/10/12 00:41:40;;;;;;;11.57;3.40;;;5.20;99.90;;;;;;5048047;28;20049;-39
2022/10/12 00:44:33;;;;;;;12.32;3.97;;;5.10;99.90;;;;;;5047961;28;20458;-39
2022/10/12 00:46:59;;;;;;;13.15;4.78;;;5.00;99.90;;;;;;5047548;28;20045;-40
2022/10/12 00:49:26;;;;;;;12.55;5.45;;;5.20;99.90;;;;;;5047757;28;20518;-39
2022/10/12 00:51:59;;;;;;;13.13;4.65;;;5.20;99.90;;;;;;5048202;28;20052;-39
2022/10/12 00:54:35;;;;;;;12.20;4.70;;;5.30;99.90;;;;;;5048229;28;20041;-40
2022/10/12 00:57:03;;;;;;;9.93;3.63;;;5.30;99.90;;;;;;5048478;28;20470;-39
2022/10/12 00:59:59;;;;;;;12.65;4.90;;;5.20;99.90;;;;;;5048165;28;20047;-39
2022/10/12 01:02:27;;;;;;;17.70;4.63;;;5.40;99.90;;;;;;5046841;28;20057;-39
2022/10/12 01:04:53;;;;;;;13.20;5.10;;;5.20;99.90;;;;;;5047508;28;20049;-40
2022/10/12 01:07:19;;;;;;;18.63;5.15;;;5.40;99.90;;;;;;5048109;28;20048;-39
2022/10/12 01:09:45;;;;;;;11.32;4.43;;;5.30;99.90;;;;;;5047214;28;20045;-39
2022/10/12 01:12:11;;;;;;;13.30;5.25;;;5.20;99.90;;;;;;5047552;28;20155;-39
2022/10/12 01:14:37;;;;;;;11.38;5.28;;;5.30;99.90;;;;;;5047111;28;20037;-40
2022/10/12 01:17:06;;;;;;;14.23;4.80;;;5.20;99.90;;;;;;5042238;28;20037;-39
2022/10/12 01:19:58;;;;;;;13.18;5.35;;;5.00;99.90;;;;;;5036905;28;20056;-39
2022/10/12 01:22:23;;;;;;;19.67;5.13;;;5.10;99.90;;;;;;5045166;28;20051;-39
2022/10/12 01:25:00;;;;;;;13.77;6.70;;;5.40;99.90;;;;;;5045195;28;20455;-39
2022/10/12 01:27:51;;;;;;;13.82;4.95;;;5.10;99.90;;;;;;5046135;28;20040;-39
2022/10/12 01:30:17;;;;;;;22.88;5.22;;;5.20;99.90;;;;;;5046288;28;20098;-40
2022/10/12 01:33:09;;;;;;;15.57;5.88;;;5.30;99.90;;;;;;5045843;28;20045;-40
2022/10/12 01:35:54;;;;;;;17.63;4.68;;;5.40;99.90;;;;;;5046086;28;20073;-39
2022/10/12 01:38:31;;;;;;;19.10;5.97;;;5.30;99.90;;;;;;5045332;28;20513;-39
2022/10/12 01:41:09;;;;;;;14.77;6.13;;;5.30;99.90;;;;;;5045625;28;20102;-40
2022/10/12 01:43:38;;;;;;;12.00;5.00;;;5.20;99.90;;;;;;5046236;28;20041;-39
2022/10/12 01:46:16;;;;;;;11.05;5.57;;;5.30;99.90;;;;;;5045362;28;20045;-40
2022/10/12 01:48:44;;;;;;;9.05;4.03;;;5.40;99.90;;;;;;5045226;28;20135;-39
2022/10/12 01:51:13;;;;;;;12.45;4.75;;;5.30;99.90;;;;;;5045290;28;20036;-39
2022/10/12 01:54:10;;;;;;;12.27;4.50;;;5.40;99.90;;;;;;5045988;28;20045;-39
2022/10/12 01:56:48;;;;;;;15.40;5.32;;;5.30;99.90;;;;;;5045324;28;20041;-39
2022/10/12 01:59:29;;;;;;;11.23;4.70;;;5.50;99.90;;;;;;5045390;28;20444;-39
2022/10/12 02:02:01;;;;;;;11.80;5.13;;;5.30;99.90;;;;;;5044546;28;20074;-39
2022/10/12 02:04:38;;;;;;;13.00;4.72;;;5.30;99.90;;;;;;5045506;28;20118;-40
2022/10/12 02:07:11;;;;;;;10.40;4.35;;;5.30;99.90;;;;;;5045325;28;20577;-39
2022/10/12 02:09:38;;;;;;;12.60;4.65;;;5.40;99.90;;;;;;5045379;28;20045;-39
2022/10/12 02:12:11;;;;;;;15.65;4.30;;;5.40;99.90;;;;;;5045365;28;20128;-40
2022/10/12 02:14:45;;;;;;;17.83;5.32;;;5.20;99.90;;;;;;5045121;28;20120;-39
2022/10/12 02:17:14;;;;;;;12.52;4.30;;;5.10;99.90;;;;;;5044868;28;20045;-39
2022/10/12 02:20:02;;;;;;;10.38;4.30;;;4.90;99.90;;;;;;5045258;28;20044;-40
2022/10/12 02:22:33;;;;;;;10.85;4.50;;;4.90;99.90;;;;;;5043157;28;20446;-39
2022/10/12 02:25:06;;;;;;;10.98;4.10;;;5.00;99.90;;;;;;5044658;28;20037;-39
2022/10/12 02:27:34;;;;;;;36.38;6.80;;;4.90;99.90;;;;;;5045143;28;20048;-39
2022/10/12 02:30:01;;;;;;;13.50;4.05;;;4.90;99.90;;;;;;5044840;28;20418;-39
2022/10/12 02:32:50;;;;;;;9.85;4.72;;;4.90;99.90;;;;;;5044728;28;20041;-39
2022/10/12 02:35:24;;;;;;;15.15;4.57;;;4.70;99.90;;;;;;5044690;28;20040;-39
2022/10/12 02:37:55;;;;;;;13.93;5.03;;;4.70;99.90;;;;;;5045733;28;20414;-39
2022/10/12 02:40:49;;;;;;;12.68;5.78;;;5.00;99.90;;;;;;5045848;28;20458;-39
2022/10/12 02:43:48;;;;;;;11.32;5.95;;;4.80;99.90;;;;;;5045956;28;20072;-40
2022/10/12 02:46:17;;;;;;;14.82;6.38;;;4.80;99.90;;;;;;5036261;28;20344;-39
2022/10/12 02:48:45;;;;;;;17.33;6.25;;;5.10;99.90;;;;;;5045853;28;20067;-39
2022/10/12 02:51:11;;;;;;;20.77;7.18;;;5.00;99.90;;;;;;5045746;28;20064;-39
2022/10/12 02:53:37;;;;;;;18.33;7.60;;;5.00;99.90;;;;;;5045189;28;20048;-39
2022/10/12 02:56:06;;;;;;;18.85;7.55;;;5.10;99.90;;;;;;5044978;28;20490;-40
2022/10/12 02:58:32;;;;;;;16.13;8.35;;;5.10;99.90;;;;;;5045591;28;20037;-39
2022/10/12 03:00:58;;;;;;;14.30;7.10;;;5.20;99.90;;;;;;5044006;28;20379;-39
2022/10/12 03:03:24;;;;;;;21.52;8.13;;;5.30;99.90;;;;;;5044075;28;20056;-39
2022/10/12 03:05:49;;;;;;;16.25;6.93;;;5.30;99.90;;;;;;5045643;28;20043;-40
2022/10/12 03:08:15;;;;;;;16.17;6.78;;;5.20;99.90;;;;;;5044696;28;20435;-39
2022/10/12 03:10:41;;;;;;;16.67;7.47;;;5.30;99.90;;;;;;5045214;28;20037;-40
2022/10/12 03:13:06;;;;;;;20.95;7.70;;;5.40;99.90;;;;;;5044928;28;20041;-39
2022/10/12 03:15:32;;;;;;;14.85;8.00;;;5.30;99.90;;;;;;5045406;28;20047;-39
2022/10/12 03:17:57;;;;;;;18.05;8.57;;;5.40;99.90;;;;;;5045049;28;20045;-39
2022/10/12 03:20:23;;;;;;;18.90;8.43;;;5.50;99.90;;;;;;5045703;28;20074;-39
2022/10/12 03:22:49;;;;;;;18.42;8.80;;;5.30;99.90;;;;;;5045174;28;20495;-39
2022/10/12 03:25:15;;;;;;;16.48;7.90;;;5.40;99.90;;;;;;5044721;28;20044;-39
2022/10/12 03:27:41;;;;;;;22.02;9.20;;;5.30;99.90;;;;;;5043913;28;20494;-39
2022/10/12 03:30:07;;;;;;;28.70;10.25;;;5.50;99.90;;;;;;5044456;28;20060;-40
2022/10/12 03:32:33;;;;;;;28.23;10.07;;;5.30;99.90;;;;;;5043450;28;20049;-39
2022/10/12 03:34:58;;;;;;;23.85;11.35;;;5.40;99.90;;;;;;5043673;28;20126;-39
2022/10/12 03:37:24;;;;;;;24.38;12.48;;;5.40;99.90;;;;;;5044958;28;20047;-39
2022/10/12 03:39:49;;;;;;;24.30;12.52;;;5.20;99.90;;;;;;5045276;28;20041;-39
2022/10/12 03:42:15;;;;;;;25.25;13.75;;;5.30;99.90;;;;;;5045488;28;20086;-39
2022/10/12 03:44:41;;;;;;;27.80;14.55;;;5.30;99.90;;;;;;5045194;28;20366;-39
2022/10/12 03:47:06;;;;;;;26.17;13.00;;;5.50;99.90;;;;;;5044338;28;20119;-39
2022/10/12 03:49:32;;;;;;;26.95;13.82;;;5.40;99.90;;;;;;5044824;28;20145;-39
2022/10/12 03:51:58;;;;;;;27.98;13.93;;;6.40;99.90;;;;;;5044894;28;20194;-39
2022/10/12 03:54:24;;;;;;;20.05;12.57;;;5.60;99.90;;;;;;5045109;28;20045;-39
2022/10/12 03:56:49;;;;;;;26.58;11.75;;;5.20;99.90;;;;;;5045242;28;20040;-39
2022/10/12 03:59:15;;;;;;;23.83;12.25;;;5.40;99.90;;;;;;5044972;28;20037;-39
2022/10/12 04:01:40;;;;;;;25.23;13.43;;;5.30;99.90;;;;;;5045139;28;20041;-39
2022/10/12 04:04:06;;;;;;;25.98;12.32;;;5.20;99.90;;;;;;5042865;28;20480;-39
2022/10/12 04:06:32;;;;;;;26.48;14.35;;;5.10;99.90;;;;;;5045073;28;20047;-39
2022/10/12 04:08:57;;;;;;;28.70;12.60;;;5.60;99.90;;;;;;5044668;28;20041;-39
2022/10/12 04:11:23;;;;;;;27.63;12.88;;;5.30;99.90;;;;;;5044212;28;20068;-39
2022/10/12 04:13:49;;;;;;;24.70;13.10;;;5.20;99.90;;;;;;5044546;28;20132;-39
2022/10/12 04:16:14;;;;;;;23.17;13.80;;;5.50;99.90;;;;;;5043958;28;20040;-39
2022/10/12 04:18:40;;;;;;;25.92;14.18;;;5.10;99.90;;;;;;5044682;28;20047;-39
2022/10/12 04:21:11;;;;;;;25.08;13.95;;;5.20;99.90;;;;;;5044416;28;20045;-39
2022/10/12 04:23:36;;;;;;;29.60;14.38;;;5.30;99.90;;;;;;5044363;28;20051;-39
2022/10/12 04:26:02;;;;;;;22.27;12.38;;;5.40;99.90;;;;;;5044189;28;20045;-39
2022/10/12 04:28:27;;;;;;;24.17;13.07;;;5.20;99.90;;;;;;5044322;28;20096;-39
2022/10/12 04:30:53;;;;;;;27.42;12.98;;;5.20;99.90;;;;;;5044392;28;20052;-39
2022/10/12 04:33:19;;;;;;;25.05;13.50;;;5.30;99.90;;;;;;5044106;28;20041;-39
2022/10/12 04:35:44;;;;;;;27.67;13.15;;;5.40;99.90;;;;;;5044721;28;20033;-39
2022/10/12 04:38:11;;;;;;;25.95;14.65;;;5.30;99.90;;;;;;5044198;28;20051;-39
2022/10/12 04:40:37;;;;;;;32.92;14.50;;;5.20;99.90;;;;;;5044427;28;20049;-40
2022/10/12 04:43:03;;;;;;;24.83;14.15;;;5.20;99.90;;;;;;5044758;28;20059;-39
2022/10/12 04:45:29;;;;;;;27.00;13.27;;;5.20;99.90;;;;;;5044147;28;20048;-39
2022/10/12 04:47:55;;;;;;;29.35;14.65;;;5.30;99.90;;;;;;5044633;28;20065;-39
2022/10/12 04:50:21;;;;;;;26.08;13.88;;;5.20;99.90;;;;;;5044716;28;20045;-39
2022/10/12 04:52:47;;;;;;;27.75;14.43;;;5.60;99.90;;;;;;5044517;28;20102;-39
2022/10/12 04:55:12;;;;;;;30.85;14.25;;;5.10;99.90;;;;;;5044520;28;20041;-40
2022/10/12 04:57:38;;;;;;;23.05;12.40;;;5.10;99.90;;;;;;5044395;28;20045;-39
2022/10/12 05:00:05;;;;;;;33.50;13.95;;;5.10;99.90;;;;;;5045761;28;20128;-39
2022/10/12 05:02:31;;;;;;;28.45;14.57;;;4.90;99.90;;;;;;5047793;28;20083;-39
2022/10/12 05:04:57;;;;;;;26.10;14.43;;;5.10;99.90;;;;;;5047283;28;20124;-39
2022/10/12 05:07:22;;;;;;;31.27;14.73;;;5.20;99.90;;;;;;5047244;28;20056;-39
2022/10/12 05:09:48;;;;;;;33.00;15.00;;;5.10;99.90;;;;;;5047550;28;20052;-40
2022/10/12 05:12:14;;;;;;;23.90;13.30;;;5.10;99.90;;;;;;5047389;28;20037;-39
2022/10/12 05:14:39;;;;;;;32.63;13.77;;;5.00;99.90;;;;;;5047377;28;20053;-39
2022/10/12 05:17:05;;;;;;;26.85;14.38;;;5.10;99.90;;;;;;5047524;28;20051;-40
2022/10/12 05:19:31;;;;;;;27.10;13.95;;;5.00;99.90;;;;;;5047162;28;20365;-39
2022/10/12 05:21:56;;;;;;;26.30;13.38;;;5.30;99.90;;;;;;5047616;28;20793;-40
2022/10/12 05:24:22;;;;;;;26.08;16.13;;;5.00;99.90;;;;;;5046971;28;20617;-39
2022/10/12 05:26:48;;;;;;;27.38;13.82;;;4.90;99.90;;;;;;5047468;28;20356;-39
2022/10/12 05:29:13;;;;;;;24.45;12.68;;;5.00;99.90;;;;;;5047620;28;20048;-39
2022/10/12 05:31:39;;;;;;;25.38;12.77;;;5.40;99.90;;;;;;5047431;28;20132;-39
2022/10/12 05:34:04;;;;;;;24.85;12.52;;;4.80;99.90;;;;;;5046941;28;20044;-39
2022/10/12 05:36:30;;;;;;;25.60;12.73;;;4.80;99.90;;;;;;5047029;28;20044;-39
2022/10/12 05:38:56;;;;;;;22.63;12.38;;;4.80;99.90;;;;;;5047217;28;20037;-39
2022/10/12 05:41:21;;;;;;;23.77;14.43;;;4.80;99.90;;;;;;5047069;28;20548;-39
2022/10/12 05:43:47;;;;;;;18.10;10.90;;;4.60;99.90;;;;;;5046954;28;20496;-40
2022/10/12 05:46:13;;;;;;;22.83;12.15;;;4.50;99.90;;;;;;5046756;28;20123;-39
2022/10/12 05:48:38;;;;;;;20.05;11.63;;;4.40;99.90;;;;;;5045153;28;20068;-39
2022/10/12 05:51:04;;;;;;;22.02;11.70;;;4.50;99.90;;;;;;5046609;28;20051;-40
2022/10/12 05:53:30;;;;;;;19.20;11.27;;;4.20;99.90;;;;;;5046475;28;20081;-39
2022/10/12 05:55:59;;;;;;;19.98;11.23;;;4.20;99.90;;;;;;5046520;28;20045;-39
2022/10/12 05:58:27;;;;;;;25.58;11.73;;;4.10;99.90;;;;;;5046586;28;20040;-39
2022/10/12 06:00:53;;;;;;;22.33;12.15;;;4.20;99.90;;;;;;5047148;28;20048;-40
2022/10/12 06:03:20;;;;;;;24.60;12.32;;;4.30;99.90;;;;;;5046939;28;20036;-39
2022/10/12 06:05:45;;;;;;;24.30;13.50;;;4.40;99.90;;;;;;5047483;28;20124;-39
2022/10/12 06:08:12;;;;;;;21.50;12.82;;;4.30;99.90;;;;;;5046748;28;20128;-39
2022/10/12 06:10:44;;;;;;;25.45;12.55;;;4.40;99.90;;;;;;5045634;28;20048;-39
2022/10/12 06:13:09;;;;;;;24.15;12.77;;;4.50;99.90;;;;;;5046443;28;20045;-40
2022/10/12 06:15:35;;;;;;;26.58;14.35;;;4.20;99.90;;;;;;5045998;28;20051;-39
2022/10/12 06:18:01;;;;;;;29.77;12.15;;;4.40;99.90;;;;;;5046298;28;20041;-39
2022/10/12 06:20:27;;;;;;;28.52;12.35;;;4.30;99.90;;;;;;5045866;28;20053;-39
2022/10/12 06:22:53;;;;;;;25.73;12.85;;;4.30;99.90;;;;;;5046011;28;20068;-39
2022/10/12 06:25:18;;;;;;;26.23;13.38;;;4.20;99.90;;;;;;5046064;28;20052;-39
2022/10/12 06:27:44;;;;;;;25.23;12.73;;;4.20;99.90;;;;;;5045701;28;20059;-40
2022/10/12 06:30:11;;;;;;;24.35;12.45;;;4.30;99.90;;;;;;5045931;28;20125;-39
2022/10/12 06:32:37;;;;;;;23.95;13.80;;;4.20;99.90;;;;;;5045495;28;20177;-39
2022/10/12 06:35:03;;;;;;;28.75;14.55;;;4.40;99.90;;;;;;5045216;28;20070;-40
2022/10/12 06:37:28;;;;;;;28.08;13.32;;;4.30;99.90;;;;;;5046062;28;20167;-39
2022/10/12 06:39:54;;;;;;;28.77;13.73;;;4.40;99.90;;;;;;5046123;28;20145;-39
2022/10/12 06:42:20;;;;;;;24.40;13.95;;;4.40;99.90;;;;;;5045486;28;20045;-40
2022/10/12 06:44:46;;;;;;;27.25;13.25;;;4.30;99.90;;;;;;5045455;28;20549;-39
2022/10/12 06:47:12;;;;;;;29.60;15.15;;;4.30;99.90;;;;;;5045912;28;20036;-39
2022/10/12 06:49:37;;;;;;;22.52;12.82;;;5.60;99.90;;;;;;5045553;28;20100;-40
2022/10/12 06:52:03;;;;;;;26.98;14.52;;;4.40;99.90;;;;;;5046078;28;20384;-39
2022/10/12 06:54:29;;;;;;;26.42;13.82;;;4.30;99.90;;;;;;5045775;28;20148;-39
2022/10/12 06:56:55;;;;;;;23.23;12.85;;;4.60;99.90;;;;;;5045688;28;20449;-39
2022/10/12 06:59:21;;;;;;;25.08;13.82;;;4.60;99.90;;;;;;5045507;28;20040;-39
2022/10/12 07:01:48;;;;;;;30.77;15.55;;;4.50;99.90;;;;;;5046500;28;20099;-39
2022/10/12 07:04:14;;;;;;;23.30;15.27;;;4.60;99.90;;;;;;5045894;28;20828;-40
2022/10/12 07:06:40;;;;;;;26.25;13.55;;;4.70;99.90;;;;;;5045784;28;20045;-39
2022/10/12 07:09:06;;;;;;;20.23;12.90;;;5.00;99.90;;;;;;5045475;28;20051;-40
2022/10/12 07:11:32;;;;;;;29.30;14.57;;;4.90;99.90;;;;;;5045376;28;20124;-39
2022/10/12 07:13:58;;;;;;;25.17;14.13;;;5.20;99.90;;;;;;5045289;28;20128;-39
2022/10/12 07:16:23;;;;;;;24.92;13.65;;;5.20;99.90;;;;;;5042925;28;20045;-39
2022/10/12 07:18:49;;;;;;;23.70;12.75;;;5.40;99.90;;;;;;5044542;28;20041;-39
2022/10/12 07:21:15;;;;;;;29.73;16.52;;;5.30;99.90;;;;;;5044236;28;20111;-44
2022/10/12 07:23:41;;;;;;;28.73;15.77;;;5.50;99.90;;;;;;5043730;28;20447;-44
2022/10/12 07:26:07;;;;;;;31.13;16.15;;;5.60;99.90;;;;;;5044089;28;20121;-40
2022/10/12 07:28:34;;;;;;;26.75;13.98;;;5.60;99.90;;;;;;5044543;28;20045;-41
2022/10/12 07:31:05;;;;;;;32.83;16.70;;;5.70;99.90;;;;;;5044094;28;20045;-40
2022/10/12 07:33:33;;;;;;;23.23;14.35;;;5.60;99.90;;;;;;5044614;28;20132;-44
2022/10/12 07:35:59;;;;;;;32.72;14.60;;;6.00;99.90;;;;;;5043540;28;20124;-43
2022/10/12 07:38:25;;;;;;;26.05;13.98;;;5.90;99.90;;;;;;5043907;28;20043;-43
2022/10/12 07:40:51;;;;;;;31.23;15.52;;;6.20;99.90;;;;;;5045030;28;20049;-42
2022/10/12 07:43:16;;;;;;;26.75;14.85;;;6.10;99.90;;;;;;5044500;28;20040;-40
2022/10/12 07:45:42;;;;;;;23.23;12.32;;;6.30;99.90;;;;;;5044448;28;20529;-40
2022/10/12 07:48:08;;;;;;;27.23;15.30;;;6.60;99.90;;;;;;5043907;28;20060;-45
2022/10/12 07:50:34;;;;;;;20.65;12.60;;;6.60;99.90;;;;;;5044095;28;20056;-39
2022/10/12 07:52:59;;;;;;;33.88;13.88;;;7.40;99.90;;;;;;5044729;28;20120;-39
2022/10/12 07:55:25;;;;;;;20.08;11.18;;;6.90;99.90;;;;;;5041987;28;20040;-39
2022/10/12 07:57:51;;;;;;;17.65;11.75;;;6.90;99.90;;;;;;5031111;28;20041;-40
2022/10/12 08:00:19;;;;;;;23.42;11.68;;;7.10;99.90;;;;;;5041281;28;20045;-41
2022/10/12 08:02:44;;;;;;;19.63;12.23;;;6.80;99.90;;;;;;5040853;28;20081;-42
2022/10/12 08:05:10;;;;;;;26.75;10.63;;;7.00;99.90;;;;;;5041907;28;20167;-43
2022/10/12 08:07:35;;;;;;;23.45;9.20;;;7.30;99.90;;;;;;5041242;28;20049;-40
2022/10/12 08:10:01;;;;;;;21.23;9.82;;;7.50;99.90;;;;;;5041366;28;20049;-41
2022/10/12 08:12:27;;;;;;;22.52;11.32;;;8.00;99.90;;;;;;5040714;28;20568;-40
2022/10/12 08:14:52;;;;;;;20.08;9.60;;;7.60;99.90;;;;;;5041940;28;20080;-40
2022/10/12 08:17:18;;;;;;;20.05;9.48;;;7.90;99.90;;;;;;5041019;28;20683;-38
2022/10/12 08:19:44;;;;;;;21.45;9.20;;;8.00;99.90;;;;;;5040942;28;20765;-44
2022/10/12 08:22:11;;;;;;;22.63;8.98;;;8.80;99.90;;;;;;5041037;28;20056;-40
2022/10/12 08:24:37;;;;;;;22.58;9.63;;;8.90;99.90;;;;;;5040989;28;20054;-42
2022/10/12 08:27:02;;;;;;;16.25;7.57;;;8.20;99.90;;;;;;5041437;28;20497;-42
2022/10/12 08:29:28;;;;;;;22.25;9.52;;;8.80;99.90;;;;;;5041477;28;20044;-42
2022/10/12 08:31:54;;;;;;;19.23;8.32;;;9.20;99.90;;;;;;5041243;28;20079;-39
2022/10/12 08:34:20;;;;;;;14.52;7.38;;;9.10;99.90;;;;;;5043182;28;20041;-40
2022/10/12 08:36:45;;;;;;;15.57;7.53;;;9.90;99.90;;;;;;5045249;28;20158;-38
2022/10/12 08:39:11;;;;;;;18.27;7.65;;;9.20;99.90;;;;;;5045170;28;20187;-38
2022/10/12 08:41:47;;;;;;;16.05;6.63;;;9.40;99.90;;;;;;5043726;28;20178;-38
2022/10/12 08:44:29;;;;;;;12.90;6.25;;;10.50;99.90;;;;;;5045478;28;20105;-38
2022/10/12 08:47:04;;;;;;;14.57;5.90;;;10.20;99.90;;;;;;5044963;28;20045;-40
2022/10/12 08:49:31;;;;;;;17.10;6.18;;;10.80;99.90;;;;;;5044710;28;20124;-40
2022/10/12 08:52:00;;;;;;;15.80;4.82;;;10.60;99.90;;;;;;5045380;28;20052;-41
2022/10/12 08:54:36;;;;;;;18.08;5.00;;;11.00;99.90;;;;;;5045703;28;20098;-39
2022/10/12 08:57:02;;;;;;;13.50;3.97;;;10.70;99.90;;;;;;5045145;28;20092;-39
2022/10/12 08:59:29;;;;;;;16.65;5.25;;;10.80;99.90;;;;;;5044835;28;20207;-39
2022/10/12 09:02:24;;;;;;;15.68;5.07;;;11.90;99.90;;;;;;5044368;28;20239;-39
2022/10/12 09:04:57;;;;;;;16.55;5.60;;;11.00;99.90;;;;;;5036437;28;20509;-36
2022/10/12 09:10:48;;;;;;;17.58;6.60;;;11.00;99.90;;;;;;5070688;27;21020;-39
2022/10/12 09:13:38;;;;;;;15.75;5.30;;;11.30;99.90;;;;;;5070364;28;20048;-39
2022/10/12 09:16:14;;;;;;;15.13;5.25;;;11.30;99.90;;;;;;5064507;28;20040;-41
2022/10/12 09:18:44;;;;;;;13.73;4.80;;;11.60;99.90;;;;;;5059270;28;20052;-38
2022/10/12 09:21:16;;;;;;;17.55;5.10;;;11.50;99.90;;;;;;5060722;28;20064;-39
2022/10/12 09:23:43;;;;;;;19.67;5.65;;;11.70;99.90;;;;;;5060602;28;20087;-38
2022/10/12 09:26:17;;;;;;;13.02;5.32;;;11.70;99.90;;;;;;5060309;28;20727;-38
2022/10/12 09:28:44;;;;;;;14.32;5.13;;;11.80;99.90;;;;;;5060523;28;20059;-38
2022/10/12 09:31:42;;;;;;;11.93;3.88;;;11.90;99.90;;;;;;5060795;28;20090;-38
2022/10/12 09:34:08;;;;;;;15.38;4.70;;;12.00;99.90;;;;;;5037519;28;20091;-38
2022/10/12 09:36:38;;;;;;;11.88;4.72;;;12.10;99.90;;;;;;5060936;28;20407;-38
2022/10/12 09:39:09;;;;;;;13.43;4.55;;;12.20;99.90;;;;;;5060863;28;20049;-38
2022/10/12 09:41:40;;;;;;;22.57;4.40;;;12.40;99.90;;;;;;5060241;28;20049;-38
2022/10/12 09:44:08;;;;;;;15.55;3.30;;;13.40;99.90;;;;;;5061018;28;20114;-38
2022/10/12 09:46:38;;;;;;;10.50;3.47;;;12.80;99.90;;;;;;5060519;28;20044;-38
2022/10/12 09:49:04;;;;;;;14.23;4.50;;;12.90;99.90;;;;;;5060214;28;20049;-38
2022/10/12 09:51:31;;;;;;;13.70;4.07;;;13.00;99.90;;;;;;5059615;28;20516;-38
2022/10/12 09:54:02;;;;;;;10.13;3.10;;;13.50;99.90;;;;;;5058759;28;20047;-39
2022/10/12 09:56:39;;;;;;;12.80;3.05;;;13.70;99.90;;;;;;5060678;28;20469;-38
2022/10/12 09:59:19;;;;;;;10.75;2.85;;;13.30;99.90;;;;;;5058811;28;20401;-38
2022/10/12 10:02:19;;;;;;;12.18;2.95;;;13.60;99.90;;;;;;5060786;28;20049;-43
2022/10/12 10:04:46;;;;;;;17.20;3.08;;;13.30;99.90;;;;;;5047920;28;20055;-42
2022/10/12 10:07:23;;;;;;;13.55;3.47;;;13.40;99.90;;;;;;5058872;28;20057;-42
2022/10/12 10:10:11;;;;;;;9.27;2.40;;;13.10;99.90;;;;;;5059680;28;20064;-43
2022/10/12 10:12:50;;;;;;;9.38;3.13;;;13.20;99.90;;;;;;5024692;28;20084;-42
2022/10/12 10:15:28;;;;;;;14.02;2.75;;;13.20;99.90;;;;;;5021017;28;20065;-43
2022/10/12 10:17:58;;;;;;;8.75;3.00;;;13.30;99.90;;;;;;5020381;28;20083;-43
2022/10/12 10:20:40;;;;;;;11.60;2.78;;;13.30;99.90;;;;;;5015578;28;20411;-43
2022/10/12 10:23:07;;;;;;;;;;;13.40;99.90;;;;;;5006682;28;20088;-42
2022/10/12 10:25:34;;;;;;;9.30;2.05;;;13.70;99.90;;;;;;5007159;28;19928;-42
2022/10/12 10:28:26;;;;;;;11.02;2.58;;;13.40;99.90;;;;;;5006114;28;20050;-42
2022/10/12 10:30:57;;;;;;;;;;;13.40;99.90;;;;;;5006873;28;20072;-42
2022/10/12 10:33:42;;;;;;;11.00;2.38;;;13.30;99.90;;;;;;5007111;28;20553;-41
2022/10/12 10:36:27;;;;;;;7.40;1.90;;;13.20;99.90;;;;;;5007484;28;20049;-42
2022/10/12 10:39:35;;;;;;;10.30;2.25;;;13.30;99.90;;;;;;5007259;28;20096;-42
2022/10/12 10:42:24;;;;;;;10.02;2.10;;;13.30;99.90;;;;;;5006536;28;20053;-43
2022/10/12 10:45:31;;;;;;;11.50;2.47;;;13.80;99.90;;;;;;5006875;28;20826;-42
2022/10/12 10:48:23;;;;;;;8.48;2.30;;;13.80;99.90;;;;;;5006257;28;20068;-39
2022/10/12 10:51:01;;;;;;;9.40;1.88;;;13.50;99.90;;;;;;5006075;28;20383;-39
2022/10/12 10:53:41;;;;;;;11.90;1.90;;;13.40;99.90;;;;;;5006275;28;20220;-38
2022/10/12 10:56:32;;;;;;;10.55;1.95;;;13.40;99.90;;;;;;5006268;28;20041;-39
2022/10/12 10:59:32;;;;;;;8.23;1.98;;;13.40;99.90;;;;;;5005562;28;20056;-42
2022/10/12 11:02:02;;;;;;;5.72;1.48;;;13.50;99.90;;;;;;5005419;28;20061;-44
2022/10/12 11:04:42;;;;;;;6.93;1.55;;;13.50;99.90;;;;;;5006121;28;20054;-44
2022/10/12 11:07:30;;;;;;;7.75;1.40;;;13.50;99.90;;;;;;5005933;28;20042;-45
2022/10/12 11:09:59;;;;;;;8.90;1.58;;;13.50;99.90;;;;;;5005209;28;20058;-43
2022/10/12 11:12:30;;;;;;;8.07;1.50;;;13.50;99.90;;;;;;4997592;28;20054;-44
2022/10/12 11:15:34;;;;;;;8.27;1.42;;;13.80;99.90;;;;;;5005787;28;20068;-45
2022/10/12 11:18:20;;;;;;;8.63;1.20;;;13.50;99.90;;;;;;4985090;28;20074;-44
2022/10/12 11:20:58;;;;;;;7.00;0.90;;;13.50;99.90;;;;;;5005862;28;20042;-44
2022/10/12 11:24:13;;;;;;;7.43;1.67;;;13.50;99.90;;;;;;5006119;28;20078;-44
2022/10/12 11:26:45;;;;;;;7.28;1.80;;;13.60;99.90;;;;;;4964530;28;20073;-44
2022/10/12 11:29:13;;;;;;;9.52;1.40;;;13.60;99.90;;;;;;5002866;28;20734;-43
2022/10/12 11:31:51;;;;;;;6.25;1.58;;;13.60;99.90;;;;;;5005786;28;20042;-44
2022/10/12 11:34:21;;;;;;;10.30;2.05;;;13.70;99.90;;;;;;5005710;28;20128;-42
2022/10/12 11:36:50;;;;;;;7.75;1.98;;;14.20;99.90;;;;;;5005715;28;20649;-43
2022/10/12 11:39:40;;;;;;;7.60;1.30;;;13.70;99.90;;;;;;5005893;28;20233;-43
2022/10/12 11:42:09;;;;;;;7.93;1.40;;;14.20;99.90;;;;;;5005367;28;20515;-44
2022/10/12 11:44:41;;;;;;;9.30;1.27;;;13.70;99.90;;;;;;5005290;28;20097;-44
2022/10/12 11:47:40;;;;;;;9.40;1.13;;;13.70;99.90;;;;;;5004848;28;20084;-43
2022/10/12 11:50:18;;;;;;;8.38;1.17;;;13.70;99.90;;;;;;5005293;28;20100;-44
2022/10/12 11:52:47;;;;;;;8.93;1.30;;;13.70;99.90;;;;;;5005554;28;20511;-44
2022/10/12 11:55:48;;;;;;;9.30;2.45;;;13.60;99.90;;;;;;5004365;28;20128;-43
2022/10/12 11:58:24;;;;;;;9.48;1.27;;;13.70;99.90;;;;;;5004620;28;20859;-43
2022/10/12 12:01:06;;;;;;;11.73;1.90;;;13.70;99.90;;;;;;5005612;28;20046;-44
2022/10/12 12:03:44;;;;;;;9.48;2.00;;;13.60;99.90;;;;;;5005722;28;20141;-43
2022/10/12 12:06:28;;;;;;;15.90;3.05;;;13.60;99.90;;;;;;5005220;28;20071;-43
2022/10/12 12:09:18;;;;;;;9.73;2.10;;;14.20;99.90;;;;;;5005221;28;20053;-43
2022/10/12 12:11:44;;;;;;;11.70;3.20;;;13.60;99.90;;;;;;5005669;28;20089;-44
2022/10/12 12:14:24;;;;;;;9.73;2.42;;;13.60;99.90;;;;;;5004887;28;20053;-43
2022/10/12 12:17:28;;;;;;;10.02;2.25;;;13.60;99.90;;;;;;5004407;28;20518;-43
2022/10/12 12:19:55;;;;;;;9.70;2.15;;;13.70;99.90;;;;;;5002732;28;20566;-43
2022/10/12 12:22:26;;;;;;;9.45;3.00;;;13.70;99.90;;;;;;4996341;28;20140;-43
2022/10/12 12:24:54;;;;;;;10.15;2.33;;;13.70;99.90;;;;;;5004958;28;20428;-43
2022/10/12 12:27:34;;;;;;;9.05;2.03;;;13.70;99.90;;;;;;5005142;28;20176;-44
2022/10/12 12:30:30;;;;;;;6.15;1.38;;;13.70;99.90;;;;;;5004123;28;20042;-43
2022/10/12 12:33:24;;;;;;;8.20;1.80;;;13.70;99.90;;;;;;5003238;28;20060;-43
2022/10/12 12:35:59;;;;;;;8.13;2.10;;;13.70;99.90;;;;;;4998721;28;20053;-42
2022/10/12 12:38:34;;;;;;;6.00;1.60;;;13.70;99.90;;;;;;5005263;28;20060;-43
2022/10/12 12:41:08;;;;;;;8.32;1.58;;;13.70;99.90;;;;;;5004031;28;20042;-45
2022/10/12 12:43:55;;;;;;;11.95;1.58;;;13.70;99.90;;;;;;5004507;28;20294;-43
2022/10/12 12:46:22;;;;;;;5.97;0.93;;;13.70;99.90;;;;;;5003943;28;20377;-44
2022/10/12 12:48:47;;;;;;;13.77;2.10;;;14.00;99.90;;;;;;5003744;28;20558;-43
2022/10/12 12:51:45;;;;;;;5.35;1.23;;;13.60;99.90;;;;;;5003582;28;20088;-42
2022/10/12 12:54:20;;;;;;;5.68;1.27;;;13.60;99.90;;;;;;5006015;28;20136;-43
2022/10/12 12:57:00;;;;;;;7.32;1.20;;;13.60;99.90;;;;;;4991137;28;20053;-43
2022/10/12 12:59:57;;;;;;;9.05;1.90;;;13.60;99.90;;;;;;5007377;28;20046;-43
2022/10/12 13:02:25;;;;;;;5.28;1.08;;;13.60;99.90;;;;;;5007515;28;20484;-42
2022/10/12 13:05:13;;;;;;;10.60;1.05;;;13.50;99.90;;;;;;5006090;28;20077;-43
2022/10/12 13:07:50;;;;;;;5.05;1.20;;;13.60;99.80;;;;;;5007489;28;20064;-43